Time;durP1;ratioP1;P1;durP2;ratioP2;P2;SDS_P1;SDS_P2;PMS_P1;PMS_P2;Temp;Humidity;BMP_temperature;BMP_pressure;BME280_temperature;BME280_humidity;BME280_pressure;Samples;Min_cycle;Max_cycle;Signal;HPM_P1;HPM_P2
2022/10/19 00:00:20;;;;;;;7.13;3.38;;;;;;;8.69;95.17;102866.47;5055584;28;20055;-83
2022/10/19 00:02:46;;;;;;;7.35;2.80;;;;;;;8.60;95.25;102856.50;5044197;28;20457;-83
2022/10/19 00:05:11;;;;;;;7.25;3.42;;;;;;;8.65;95.48;102870.06;5070056;28;20036;-83
2022/10/19 00:07:37;;;;;;;6.82;3.22;;;;;;;8.56;95.51;102860.97;5071641;28;20036;-83
2022/10/19 00:10:03;;;;;;;7.15;3.25;;;;;;;8.56;95.31;102860.13;5058431;28;20120;-83
2022/10/19 00:12:29;;;;;;;9.15;3.10;;;;;;;8.51;95.66;102843.03;5045970;28;20032;-83
2022/10/19 00:14:54;;;;;;;7.47;3.08;;;;;;;8.56;96.18;102860.13;5067422;28;20848;-83
2022/10/19 00:17:19;;;;;;;8.50;3.38;;;;;;;8.50;95.63;102851.72;5045975;28;20147;-83
2022/10/19 00:19:45;;;;;;;7.95;3.00;;;;;;;8.41;96.04;102841.72;5045251;28;20037;-83
2022/10/19 00:22:10;;;;;;;8.45;3.15;;;;;;;8.45;95.93;102843.28;5060049;28;20035;-83
2022/10/19 00:24:35;;;;;;;7.63;2.75;;;;;;;8.47;95.98;102856.16;5047451;28;20032;-83
2022/10/19 00:27:01;;;;;;;7.35;3.33;;;;;;;8.37;96.21;102842.78;5042105;28;20033;-83
2022/10/19 00:29:26;;;;;;;9.07;3.15;;;;;;;8.40;95.98;102847.81;5062237;28;20025;-83
2022/10/19 00:31:51;;;;;;;9.68;3.05;;;;;;;8.35;95.73;102844.53;5063286;28;20144;-83
2022/10/19 00:34:17;;;;;;;6.85;2.75;;;;;;;8.45;95.83;102869.16;5061797;28;20423;-83
2022/10/19 00:36:42;;;;;;;7.47;2.80;;;;;;;8.43;96.30;102870.97;5063630;28;20025;-83
2022/10/19 00:39:12;;;;;;;6.72;2.85;;;;;;;8.43;95.76;102875.25;5057769;28;20024;-83
2022/10/19 00:41:38;;;;;;;8.02;3.35;;;;;;;8.30;96.08;102859.38;5049528;28;20035;-83
2022/10/19 00:44:29;;;;;;;7.20;3.03;;;;;;;8.38;95.82;102867.72;5066359;28;20035;-83
2022/10/19 00:46:58;;;;;;;5.65;2.78;;;;;;;8.26;95.95;102860.41;5066157;28;20023;-83
2022/10/19 00:49:28;;;;;;;6.10;2.67;;;;;;;8.21;95.79;102844.25;5063428;28;20045;-83
2022/10/19 00:52:06;;;;;;;6.63;2.67;;;;;;;8.27;96.39;102859.50;5050218;28;20024;-83
2022/10/19 00:54:34;;;;;;;7.50;2.78;;;;;;;8.27;96.31;102848.34;5065946;28;20111;-83
2022/10/19 00:57:00;;;;;;;13.35;3.17;;;;;;;8.23;96.54;102847.59;5060178;28;20035;-83
2022/10/19 00:59:30;;;;;;;5.32;2.72;;;;;;;8.31;96.78;102861.03;5042148;28;20024;-83
2022/10/19 01:01:56;;;;;;;10.63;3.10;;;;;;;8.27;97.07;102856.91;5044474;28;20313;-83
2022/10/19 01:04:23;;;;;;;10.02;3.63;;;;;;;8.26;96.76;102863.00;5059384;28;20032;-83
2022/10/19 01:06:49;;;;;;;5.53;2.78;;;;;;;8.24;96.45;102849.28;5068615;28;20062;-83
2022/10/19 01:09:14;;;;;;;7.00;3.15;;;;;;;8.20;97.11;102837.38;5056006;28;20028;-83
2022/10/19 01:12:00;;;;;;;11.35;3.05;;;;;;;8.28;96.75;102845.69;5061596;28;20376;-83
2022/10/19 01:18:12;;;;;;;7.95;3.05;;;;;;;8.24;96.88;102844.94;5052312;28;20036;-83
2022/10/19 01:21:12;;;;;;;6.07;2.45;;;;;;;8.24;96.70;102838.94;5051855;28;20126;-84
2022/10/19 01:24:14;;;;;;;6.80;2.95;;;;;;;8.17;96.90;102822.00;5060827;28;20024;-83
2022/10/19 01:29:53;;;;;;;9.48;3.05;;;;;;;8.19;97.63;102840.84;4999878;28;20048;-83
2022/10/19 01:32:37;;;;;;;8.75;2.75;;;;;;;8.16;97.59;102846.16;5052035;28;20107;-83
2022/10/19 01:35:05;;;;;;;7.55;2.72;;;;;;;8.13;97.37;102835.94;5030329;28;20035;-83
2022/10/19 01:37:47;;;;;;;7.25;2.80;;;;;;;8.11;96.92;102824.81;5051269;28;20033;-83
2022/10/19 01:40:24;;;;;;;5.57;3.00;;;;;;;8.09;97.16;102834.38;5042045;28;20066;-83
2022/10/19 01:42:59;;;;;;;8.65;3.35;;;;;;;7.98;97.16;102817.53;5045905;28;20081;-83
2022/10/19 01:45:44;;;;;;;7.05;3.22;;;;;;;8.00;96.98;102814.91;5062158;28;20021;-83
2022/10/19 01:48:13;;;;;;;7.65;3.15;;;;;;;8.05;96.86;102832.81;5059170;28;20975;-83
2022/10/19 01:50:52;;;;;;;5.35;2.53;;;;;;;8.06;96.81;102824.16;5057481;28;20033;-83
2022/10/19 01:53:19;;;;;;;8.85;3.13;;;;;;;7.98;96.62;102812.38;5061259;28;20112;-83
2022/10/19 01:55:50;;;;;;;11.40;3.38;;;;;;;7.94;96.97;102810.81;5059822;28;20013;-83
2022/10/19 01:58:21;;;;;;;8.20;2.97;;;;;;;7.92;97.02;102799.69;5041764;28;20036;-83
2022/10/19 02:00:51;;;;;;;7.22;3.05;;;;;;;7.94;97.59;102815.97;5062618;28;20025;-83
2022/10/19 02:03:18;;;;;;;8.98;3.13;;;;;;;8.01;97.50;102832.06;5063141;28;20040;-83
2022/10/19 02:05:45;;;;;;;6.20;3.10;;;;;;;8.01;97.35;102832.06;5061494;28;20115;-83
2022/10/19 02:08:14;;;;;;;9.02;3.15;;;;;;;7.96;97.60;102819.31;5034725;28;20047;-83
2022/10/19 02:10:43;;;;;;;9.38;3.83;;;;;;;8.02;97.99;102820.00;5053167;28;20055;-83
2022/10/19 02:13:10;;;;;;;8.98;3.30;;;;;;;7.96;97.88;102818.50;5057403;28;20032;-83
2022/10/19 02:15:41;;;;;;;8.82;3.50;;;;;;;7.97;98.33;102815.88;5057291;28;20086;-83
2022/10/19 02:18:08;;;;;;;10.15;3.80;;;;;;;7.91;97.48;102807.50;5033387;28;20020;-83
2022/10/19 02:20:35;;;;;;;9.98;3.35;;;;;;;7.89;97.85;102811.88;5059307;28;20141;-83
2022/10/19 02:23:04;;;;;;;11.07;3.65;;;;;;;7.94;97.96;102826.31;5045987;28;20310;-83
2022/10/19 02:25:30;;;;;;;7.03;3.55;;;;;;;7.90;98.02;102813.56;5046163;28;20024;-83
2022/10/19 02:27:56;;;;;;;6.22;3.53;;;;;;;7.89;97.98;102801.56;5063251;28;20047;-83
2022/10/19 02:30:21;;;;;;;8.98;3.92;;;;;;;7.78;97.59;102799.38;5063342;28;20463;-83
2022/10/19 02:32:46;;;;;;;11.82;4.13;;;;;;;7.84;98.34;102806.88;5066143;28;20066;-83
2022/10/19 02:35:13;;;;;;;8.52;3.88;;;;;;;7.83;98.91;102797.47;5067074;28;20024;-83
2022/10/19 02:37:39;;;;;;;8.65;3.40;;;;;;;7.83;98.43;102797.47;5066182;28;20036;-83
2022/10/19 02:40:05;;;;;;;9.38;4.22;;;;;;;7.84;98.66;102788.81;5067064;28;20039;-83
2022/10/19 02:42:57;;;;;;;9.38;4.35;;;;;;;7.92;98.80;102804.88;5043972;28;20043;-83
2022/10/19 02:45:27;;;;;;;9.38;4.63;;;;;;;7.86;98.93;102797.34;5035037;28;20162;-83
2022/10/19 02:48:06;;;;;;;8.18;4.53;;;;;;;7.91;99.46;102794.56;5048441;28;20446;-82
2022/10/19 02:50:31;;;;;;;10.48;4.82;;;;;;;7.77;98.96;102781.38;5066747;28;20048;-83
2022/10/19 02:53:00;;;;;;;9.23;4.72;;;;;;;7.80;99.41;102784.69;5066961;28;20491;-83
2022/10/19 02:55:26;;;;;;;11.20;5.35;;;;;;;7.88;99.82;102790.38;5065907;28;20078;-83
2022/10/19 02:57:52;;;;;;;10.38;5.07;;;;;;;7.82;99.67;102780.28;5052335;28;20465;-83
2022/10/19 03:00:18;;;;;;;10.88;4.90;;;;;;;7.85;99.64;102785.31;5058774;28;20017;-83
2022/10/19 03:02:43;;;;;;;10.02;5.00;;;;;;;7.84;99.24;102783.63;5049318;28;20464;-83
2022/10/19 03:05:09;;;;;;;10.48;5.25;;;;;;;7.83;99.26;102783.69;5061839;28;20028;-83
2022/10/19 03:07:34;;;;;;;9.75;4.88;;;;;;;7.77;99.63;102771.88;5066653;28;20063;-83
2022/10/19 03:10:00;;;;;;;12.73;5.03;;;;;;;7.71;99.05;102769.53;5055272;28;20511;-83
2022/10/19 03:12:25;;;;;;;9.35;4.82;;;;;;;7.79;99.48;102788.13;5050971;28;20088;-83
2022/10/19 03:14:51;;;;;;;14.48;5.65;;;;;;;7.70;99.33;102780.75;5042813;28;20029;-83
2022/10/19 03:17:16;;;;;;;9.00;4.70;;;;;;;7.73;99.19;102775.47;5066033;28;20032;-83
2022/10/19 03:19:41;;;;;;;9.32;5.00;;;;;;;7.70;98.85;102778.19;5056061;28;20482;-83
2022/10/19 03:22:07;;;;;;;9.02;5.05;;;;;;;7.61;98.87;102771.59;5064653;28;20356;-83
2022/10/19 03:24:32;;;;;;;10.02;4.90;;;;;;;7.59;99.00;102777.75;5064402;28;20086;-83
2022/10/19 03:26:58;;;;;;;9.55;4.82;;;;;;;7.58;98.66;102770.91;5050976;28;20064;-83
2022/10/19 03:29:23;;;;;;;9.40;4.72;;;;;;;7.60;98.90;102774.25;5052439;28;20041;-83
2022/10/19 03:31:48;;;;;;;9.10;4.47;;;;;;;7.54;98.79;102761.56;5049688;28;20025;-83
2022/10/19 03:34:14;;;;;;;8.88;4.95;;;;;;;7.58;99.12;102783.81;5060080;28;20024;-83
2022/10/19 03:36:40;;;;;;;9.98;5.25;;;;;;;7.54;99.73;102771.91;5041703;28;20032;-83
2022/10/19 03:39:10;;;;;;;10.75;4.80;;;;;;;7.55;99.79;102776.16;5046807;28;20036;-83
2022/10/19 03:41:36;;;;;;;11.40;5.68;;;;;;;7.57;99.08;102774.34;5053139;28;20186;-82
2022/10/19 03:44:02;;;;;;;9.65;4.93;;;;;;;7.57;99.55;102774.34;5056582;28;20029;-83
2022/10/19 03:46:28;;;;;;;10.57;5.47;;;;;;;7.55;99.49;102776.16;5042829;28;20115;-83
2022/10/19 03:48:53;;;;;;;11.32;5.28;;;;;;;7.55;99.52;102771.00;5063116;28;20058;-82
2022/10/19 03:51:21;;;;;;;11.00;5.47;;;;;;;7.52;99.88;102774.56;5052315;28;20037;-83
2022/10/19 03:53:51;;;;;;;13.27;5.43;;;;;;;7.50;100.00;102772.91;5055004;28;20040;-82
2022/10/19 03:56:19;;;;;;;13.02;5.40;;;;;;;7.49;100.00;102755.75;5052416;28;20295;-82
2022/10/19 03:58:46;;;;;;;9.55;5.40;;;;;;;7.55;100.00;102755.50;5056590;28;20027;-82
2022/10/19 04:01:18;;;;;;;12.02;5.13;;;;;;;7.53;100.00;102762.47;5056265;28;20381;-83
2022/10/19 04:03:43;;;;;;;9.15;5.22;;;;;;;7.57;100.00;102769.19;5046000;28;20038;-83
2022/10/19 04:06:12;;;;;;;12.30;5.20;;;;;;;7.55;100.00;102765.84;5056820;28;20028;-83
2022/10/19 04:08:38;;;;;;;10.02;5.03;;;;;;;7.50;100.00;102767.75;5048218;28;20108;-83
2022/10/19 04:11:07;;;;;;;11.27;5.20;;;;;;;7.48;100.00;102754.06;5058773;28;20111;-83
2022/10/19 04:13:33;;;;;;;12.48;5.28;;;;;;;7.49;100.00;102773.81;5058693;28;20028;-83
2022/10/19 04:15:58;;;;;;;10.77;5.10;;;;;;;7.50;100.00;102778.06;5060655;28;20028;-83
2022/10/19 04:18:24;;;;;;;10.07;5.60;;;;;;;7.44;100.00;102774.81;5053871;28;20465;-83
2022/10/19 04:20:57;;;;;;;10.10;5.53;;;;;;;7.38;99.99;102769.03;5053143;28;20039;-84
2022/10/19 04:23:26;;;;;;;10.77;5.65;;;;;;;7.37;100.00;102768.22;5052567;28;20476;-83
2022/10/19 04:25:51;;;;;;;10.52;5.82;;;;;;;7.48;100.00;102779.88;5033059;28;20036;-83
2022/10/19 04:28:17;;;;;;;8.57;5.07;;;;;;;7.38;100.00;102763.88;5035251;28;20631;-83
2022/10/19 04:30:42;;;;;;;11.80;5.78;;;;;;;7.41;100.00;102764.63;5059319;28;20442;-83
2022/10/19 04:33:07;;;;;;;10.40;5.90;;;;;;;7.45;100.00;102781.69;5045169;28;20039;-83
2022/10/19 04:35:33;;;;;;;13.90;5.95;;;;;;;7.45;100.00;102786.84;5059093;28;20568;-83
2022/10/19 04:37:58;;;;;;;9.60;5.68;;;;;;;7.32;100.00;102764.94;5059794;28;20020;-83
2022/10/19 04:40:24;;;;;;;10.43;5.85;;;;;;;7.33;100.00;102765.78;5058695;28;20539;-83
2022/10/19 04:42:49;;;;;;;11.68;5.80;;;;;;;7.28;100.00;102768.53;5065727;28;20070;-83
2022/10/19 04:45:14;;;;;;;12.45;5.90;;;;;;;7.41;99.93;102779.28;5065560;28;20079;-83
2022/10/19 04:47:40;;;;;;;11.82;5.95;;;;;;;7.42;100.00;102786.13;5051799;28;20129;-81
2022/10/19 04:50:05;;;;;;;10.25;6.13;;;;;;;7.36;99.42;102786.34;5042221;28;20186;-82
2022/10/19 04:52:31;;;;;;;12.15;6.20;;;;;;;7.33;99.80;102779.53;5055177;28;20039;-82
2022/10/19 04:54:56;;;;;;;9.93;6.07;;;;;;;7.28;99.71;102768.53;5059150;28;20037;-82
2022/10/19 04:57:21;;;;;;;11.02;6.05;;;;;;;7.24;99.28;102766.97;5032834;28;20478;-82
2022/10/19 04:59:47;;;;;;;9.68;6.10;;;;;;;7.30;99.54;102777.09;5056420;28;20029;-82
2022/10/19 05:02:12;;;;;;;11.77;6.35;;;;;;;7.28;99.38;102771.13;5058770;28;20037;-82
2022/10/19 05:04:38;;;;;;;12.80;5.97;;;;;;;7.27;99.58;102776.34;5064263;28;20029;-82
2022/10/19 05:07:03;;;;;;;9.55;5.95;;;;;;;7.28;99.94;102772.84;5056999;28;20029;-81
2022/10/19 05:09:28;;;;;;;12.93;6.88;;;;;;;7.27;100.00;102777.19;5044757;28;20033;-82
2022/10/19 05:11:54;;;;;;;13.82;6.30;;;;;;;7.19;99.49;102758.56;5054305;28;20115;-82
2022/10/19 05:14:19;;;;;;;10.63;6.28;;;;;;;7.22;99.98;102770.50;5054514;28;20546;-82
2022/10/19 05:16:44;;;;;;;10.25;6.07;;;;;;;7.23;99.74;102775.63;5041082;28;20029;-82
2022/10/19 05:19:12;;;;;;;9.25;6.13;;;;;;;7.12;98.97;102768.28;5040537;28;20486;-83
2022/10/19 05:21:38;;;;;;;11.45;6.45;;;;;;;7.12;99.67;102775.16;5040861;28;20083;-82
2022/10/19 05:24:03;;;;;;;9.77;6.00;;;;;;;7.14;99.29;102775.94;5053722;28;20107;-82
2022/10/19 05:26:29;;;;;;;10.55;6.22;;;;;;;7.03;99.45;102757.44;5035175;28;20028;-82
2022/10/19 05:29:00;;;;;;;12.05;5.75;;;;;;;6.99;99.28;102750.69;5049781;28;20465;-82
2022/10/19 05:31:34;;;;;;;8.57;5.43;;;;;;;7.00;99.46;102753.22;5054510;28;20056;-82
2022/10/19 05:34:01;;;;;;;10.93;6.57;;;;;;;7.02;99.37;102760.91;5055207;28;20071;-82
2022/10/19 05:36:33;;;;;;;9.82;5.97;;;;;;;7.01;99.62;102764.38;5056010;28;20035;-82
2022/10/19 05:39:01;;;;;;;12.15;5.90;;;;;;;7.00;98.87;102773.03;5058881;28;20134;-82
2022/10/19 05:41:27;;;;;;;11.55;6.53;;;;;;;6.89;99.33;102756.19;5064104;28;20031;-82
2022/10/19 05:43:55;;;;;;;13.15;6.18;;;;;;;6.96;98.61;102755.97;5059697;28;20029;-82
2022/10/19 05:46:20;;;;;;;10.20;6.43;;;;;;;6.90;98.83;102755.28;5057713;28;20029;-81
2022/10/19 05:48:46;;;;;;;11.27;6.50;;;;;;;6.92;99.20;102761.22;5060003;28;20532;-82
2022/10/19 05:51:15;;;;;;;9.20;6.57;;;;;;;6.88;99.12;102754.50;5046515;28;20052;-82
2022/10/19 05:53:40;;;;;;;10.38;6.03;;;;;;;6.88;99.18;102751.94;5060642;28;20037;-82
2022/10/19 05:56:08;;;;;;;12.00;6.47;;;;;;;6.87;99.56;102752.78;5054361;28;20591;-82
2022/10/19 05:58:34;;;;;;;10.43;6.47;;;;;;;6.82;99.78;102739.22;5045293;28;20047;-82
2022/10/19 06:01:00;;;;;;;10.82;7.22;;;;;;;6.86;99.90;102740.81;5055272;28;20036;-82
2022/10/19 06:03:27;;;;;;;12.75;6.20;;;;;;;6.82;100.00;102734.06;5055868;28;20036;-82
2022/10/19 06:05:53;;;;;;;9.52;6.72;;;;;;;6.68;100.00;102715.66;5048162;28;20476;-82
2022/10/19 06:08:21;;;;;;;9.23;6.72;;;;;;;6.82;100.00;102734.06;5062660;28;20028;-81
2022/10/19 06:10:47;;;;;;;10.00;6.93;;;;;;;6.84;100.00;102742.59;5062320;28;20395;-82
2022/10/19 06:13:14;;;;;;;10.18;6.47;;;;;;;6.75;99.94;102727.44;5058354;28;20028;-82
2022/10/19 06:15:40;;;;;;;11.20;7.95;;;;;;;6.74;100.00;102741.25;5045438;28;21078;-81
2022/10/19 06:18:06;;;;;;;9.30;6.63;;;;;;;6.76;100.00;102752.34;5054783;28;20106;-81
2022/10/19 06:20:39;;;;;;;12.50;7.28;;;;;;;6.79;100.00;102759.13;5052983;28;20492;-81
2022/10/19 06:23:05;;;;;;;10.85;7.18;;;;;;;6.78;100.00;102763.47;5060788;28;20351;-81
2022/10/19 06:25:32;;;;;;;10.38;7.07;;;;;;;6.78;100.00;102747.97;5044477;28;20098;-82
2022/10/19 06:27:58;;;;;;;11.23;6.82;;;;;;;6.78;100.00;102747.97;5059175;28;20036;-82
2022/10/19 06:30:24;;;;;;;9.60;6.43;;;;;;;6.83;100.00;102751.25;5060742;28;20517;-82
2022/10/19 06:32:49;;;;;;;11.80;6.80;;;;;;;6.81;100.00;102752.19;5044835;28;20029;-81
2022/10/19 06:35:15;;;;;;;11.15;7.40;;;;;;;6.79;100.00;102752.25;5050863;28;20028;-81
2022/10/19 06:37:41;;;;;;;10.13;7.20;;;;;;;6.82;100.00;102756.44;5037626;28;20032;-81
2022/10/19 06:40:07;;;;;;;11.23;6.57;;;;;;;6.77;100.00;102736.00;5037414;28;20374;-81
2022/10/19 06:42:33;;;;;;;9.95;6.15;;;;;;;6.75;100.00;102740.34;5060220;28;20111;-81
2022/10/19 06:44:58;;;;;;;10.65;6.28;;;;;;;6.82;100.00;102744.38;5059794;28;20492;-81
2022/10/19 06:47:29;;;;;;;10.18;6.40;;;;;;;6.85;100.00;102749.44;5054403;28;20487;-82
2022/10/19 06:49:55;;;;;;;10.82;5.88;;;;;;;6.74;100.00;102730.94;5057911;28;20052;-81
2022/10/19 06:52:21;;;;;;;10.10;5.57;;;;;;;6.78;100.00;102732.50;5057333;28;20503;-81
2022/10/19 06:54:46;;;;;;;9.63;6.13;;;;;;;6.77;100.00;102725.69;5066906;28;20041;-81
2022/10/19 06:57:11;;;;;;;10.90;6.18;;;;;;;6.79;100.00;102735.94;5053785;28;20078;-81
2022/10/19 06:59:37;;;;;;;11.13;5.90;;;;;;;6.86;100.00;102745.13;5047088;28;20016;-82
2022/10/19 07:02:02;;;;;;;9.13;6.38;;;;;;;6.82;100.00;102744.38;5044111;28;20159;-82
2022/10/19 07:04:28;;;;;;;11.70;5.97;;;;;;;6.75;100.00;102730.03;5046809;28;20028;-81
2022/10/19 07:06:53;;;;;;;9.85;6.50;;;;;;;6.75;100.00;102719.72;5047348;28;20035;-81
2022/10/19 07:09:18;;;;;;;11.40;7.57;;;;;;;6.84;100.00;102742.59;5042594;28;20031;-81
2022/10/19 07:11:44;;;;;;;13.07;7.40;;;;;;;6.84;100.00;102745.19;5051326;28;20051;-82
2022/10/19 07:14:10;;;;;;;12.57;6.53;;;;;;;6.85;100.00;102748.59;5059416;28;21298;-81
2022/10/19 07:16:35;;;;;;;10.25;7.07;;;;;;;6.94;100.00;102758.63;5044599;28;20120;-81
2022/10/19 07:19:00;;;;;;;13.25;7.10;;;;;;;6.90;100.00;102737.22;5055854;28;20385;-81
2022/10/19 07:21:26;;;;;;;11.73;7.32;;;;;;;6.91;100.00;102738.91;5055003;28;20066;-81
2022/10/19 07:23:51;;;;;;;10.38;6.25;;;;;;;6.96;100.00;102746.50;5044743;28;20464;-81
2022/10/19 07:26:26;;;;;;;11.75;6.35;;;;;;;6.87;100.00;102727.00;5044310;28;20037;-82
2022/10/19 07:28:54;;;;;;;11.63;6.65;;;;;;;6.98;100.00;102756.75;5052406;28;20420;-81
2022/10/19 07:31:22;;;;;;;9.65;6.05;;;;;;;7.02;100.00;102760.91;5057321;28;20530;-82
2022/10/19 07:33:55;;;;;;;10.10;6.33;;;;;;;7.03;100.00;102757.44;5059758;28;20047;-81
2022/10/19 07:36:21;;;;;;;13.18;6.18;;;;;;;7.12;100.00;102746.78;5059510;28;20106;-81
2022/10/19 07:38:46;;;;;;;9.90;5.60;;;;;;;7.04;100.00;102722.97;5061439;28;20444;-81
2022/10/19 07:41:14;;;;;;;11.52;6.30;;;;;;;7.06;100.00;102711.72;5049754;28;20016;-81
2022/10/19 07:43:41;;;;;;;11.03;5.83;;;;;;;7.14;100.00;102740.66;5045801;28;20031;-81
2022/10/19 07:46:10;;;;;;;13.07;6.07;;;;;;;7.23;100.00;102747.25;5060079;28;20790;-81
2022/10/19 07:48:35;;;;;;;10.02;5.90;;;;;;;7.26;100.00;102744.53;5036737;28;20032;-82
2022/10/19 07:51:04;;;;;;;11.05;6.57;;;;;;;7.29;100.00;102744.44;5047306;28;20094;-81
2022/10/19 07:53:29;;;;;;;13.73;7.03;;;;;;;7.26;100.00;102739.38;5056349;28;20024;-81
2022/10/19 07:55:55;;;;;;;12.65;6.38;;;;;;;7.29;100.00;102744.44;5063564;28;20090;-82
2022/10/19 07:58:20;;;;;;;13.52;6.72;;;;;;;7.30;100.00;102751.28;5044932;28;20380;-81
2022/10/19 08:00:45;;;;;;;13.00;6.28;;;;;;;7.29;100.00;102752.16;5043391;28;20038;-81
2022/10/19 08:03:11;;;;;;;9.15;5.72;;;;;;;7.31;100.00;102747.78;5063413;28;20024;-83
2022/10/19 08:05:36;;;;;;;10.18;5.90;;;;;;;7.40;100.00;102762.09;5054245;28;20174;-82
2022/10/19 08:08:02;;;;;;;11.65;5.60;;;;;;;7.49;100.00;102759.16;5046823;28;20075;-81
2022/10/19 08:10:28;;;;;;;11.93;6.53;;;;;;;7.53;100.00;102758.16;5058983;28;20052;-82
2022/10/19 08:12:53;;;;;;;12.20;5.80;;;;;;;7.59;100.00;102762.25;5064309;28;20024;-81
2022/10/19 08:15:18;;;;;;;13.13;6.90;;;;;;;7.58;100.00;102747.66;5058355;28;20350;-82
2022/10/19 08:17:44;;;;;;;13.90;6.32;;;;;;;7.63;100.00;102748.31;5047723;28;20457;-82
2022/10/19 08:20:09;;;;;;;12.57;6.82;;;;;;;7.69;100.00;102737.75;5056963;28;20341;-81
2022/10/19 08:22:35;;;;;;;9.93;6.25;;;;;;;7.78;100.00;102747.72;5052697;28;20495;-81
2022/10/19 08:25:00;;;;;;;14.95;7.05;;;;;;;7.80;100.00;102729.56;5050628;28;20032;-81
2022/10/19 08:27:26;;;;;;;12.88;6.53;;;;;;;7.87;100.00;102737.03;5043710;28;20500;-81
2022/10/19 08:29:51;;;;;;;10.32;6.15;;;;;;;7.88;100.00;102728.38;5054609;28;20028;-81
2022/10/19 08:32:17;;;;;;;10.00;5.70;;;;;;;7.96;100.00;102736.66;5046802;28;20043;-81
2022/10/19 08:34:43;;;;;;;14.05;5.63;;;;;;;8.05;100.00;102724.28;5048892;28;20032;-80
2022/10/19 08:37:09;;;;;;;10.13;5.88;;;;;;;8.17;100.00;102729.78;5064446;28;20020;-81
2022/10/19 08:39:34;;;;;;;12.27;5.03;;;;;;;8.20;100.00;102729.66;5045474;28;20388;-81
2022/10/19 08:42:04;;;;;;;10.05;5.25;;;;;;;8.29;100.00;102728.44;5061176;28;20073;-81
2022/10/19 08:44:53;;;;;;;12.15;5.15;;;;;;;8.39;100.00;102723.75;5061491;28;20040;-81
2022/10/19 08:47:54;;;;;;;11.52;5.07;;;;;;;8.37;100.00;102716.06;5051873;28;20456;-81
2022/10/19 08:50:24;;;;;;;8.32;5.30;;;;;;;8.53;100.00;102731.75;5032865;28;20040;-81
2022/10/19 08:53:01;;;;;;;9.73;5.38;;;;;;;8.61;100.00;102728.88;5061931;28;20033;-81
2022/10/19 08:55:58;;;;;;;10.20;5.75;;;;;;;8.57;100.00;102701.44;5057008;28;20024;-81
2022/10/19 08:58:49;;;;;;;9.68;5.70;;;;;;;8.75;100.00;102718.75;5045650;28;20028;-81
2022/10/19 09:01:39;;;;;;;10.15;5.95;;;;;;;8.84;100.00;102720.94;5058289;28;20332;-81
2022/10/19 09:04:21;;;;;;;11.32;4.78;;;;;;;8.86;100.00;102698.41;5059535;28;20036;-81
2022/10/19 09:06:56;;;;;;;8.77;4.88;;;;;;;8.90;100.00;102694.81;5053486;28;20023;-82
2022/10/19 09:09:22;;;;;;;11.93;5.55;;;;;;;9.02;100.00;102689.06;5055252;28;20021;-81
2022/10/19 09:11:50;;;;;;;8.93;5.07;;;;;;;9.15;100.00;102704.03;5056413;28;20032;-82
2022/10/19 09:14:29;;;;;;;10.43;4.90;;;;;;;9.17;100.00;102687.50;5057240;28;20028;-81
2022/10/19 09:17:00;;;;;;;8.88;4.57;;;;;;;9.27;100.00;102682.75;5055311;28;20040;-82
2022/10/19 09:19:29;;;;;;;11.68;5.03;;;;;;;9.37;100.00;102694.38;5060211;28;20052;-81
2022/10/19 09:22:01;;;;;;;8.32;4.00;;;;;;;9.38;99.89;102683.09;5056214;28;20025;-82
2022/10/19 09:24:45;;;;;;;11.85;4.97;;;;;;;9.55;98.71;102690.09;5057935;28;20028;-81
2022/10/19 09:27:20;;;;;;;7.57;4.47;;;;;;;9.52;98.93;102678.13;5055867;28;20059;-82
2022/10/19 09:29:53;;;;;;;8.30;4.13;;;;;;;9.56;98.25;102674.47;5056313;28;20033;-82
2022/10/19 09:32:34;;;;;;;8.40;4.25;;;;;;;9.74;98.54;102692.63;5057447;28;20029;-82
2022/10/19 09:35:03;;;;;;;7.78;3.72;;;;;;;9.84;98.17;102688.69;5037960;28;20568;-82
2022/10/19 09:37:30;;;;;;;;;;;;;;;9.98;99.03;102701.81;5058091;28;20024;-82
2022/10/19 09:39:56;;;;;;;8.13;3.58;;;;;;;10.01;97.83;102685.25;5059544;28;19916;-83
2022/10/19 09:42:31;;;;;;;7.13;3.00;;;;;;;9.99;96.08;102656.84;5058226;28;20037;-84
2022/10/19 09:44:59;;;;;;;7.60;2.85;;;;;;;10.15;94.88;102669.00;5059124;28;20029;-84
2022/10/19 09:47:31;;;;;;;6.40;2.97;;;;;;;10.27;95.49;102671.03;5064423;28;20020;-84
2022/10/19 09:50:13;;;;;;;6.07;2.95;;;;;;;10.30;94.60;102665.69;5046187;28;20171;-83
2022/10/19 09:52:40;;;;;;;8.27;3.20;;;;;;;10.29;93.90;102664.00;5063529;28;20055;-84
2022/10/19 09:55:19;;;;;;;6.05;2.63;;;;;;;10.43;94.48;102674.50;5039319;28;20119;-84
2022/10/19 09:57:48;;;;;;;5.75;2.85;;;;;;;10.45;93.55;102664.91;5056546;28;20023;-84
2022/10/19 10:00:21;;;;;;;;;;;;;;;10.59;95.22;102678.00;5066155;28;20032;-84
2022/10/19 10:02:54;;;;;;;5.10;2.40;;;;;;;10.67;91.53;102681.94;5062487;28;19920;-85
2022/10/19 10:05:30;;;;;;;4.20;2.22;;;;;;;10.64;91.49;102670.81;5047318;28;20063;-85
2022/10/19 10:07:56;;;;;;;5.05;2.25;;;;;;;10.74;89.87;102675.53;5063003;28;20039;-83
2022/10/19 10:10:33;;;;;;;5.72;1.90;;;;;;;10.82;89.33;102691.50;5062523;28;20374;-83
2022/10/19 10:12:59;;;;;;;3.28;1.60;;;;;;;10.93;89.98;102680.56;5046553;28;20033;-84
2022/10/19 10:15:27;;;;;;;6.00;2.30;;;;;;;10.97;86.70;102682.09;5045260;28;20512;-84
2022/10/19 10:17:55;;;;;;;7.15;2.20;;;;;;;10.94;87.23;102659.72;5045750;28;20028;-85
2022/10/19 10:20:31;;;;;;;5.57;2.50;;;;;;;11.02;88.41;102654.97;5070664;28;20024;-84
2022/10/19 10:23:01;;;;;;;5.47;2.63;;;;;;;11.11;87.41;102657.03;5049768;28;20025;-84
2022/10/19 10:25:32;;;;;;;4.95;2.03;;;;;;;11.13;87.04;102641.41;5049054;28;20047;-84
2022/10/19 10:28:28;;;;;;;6.18;1.70;;;;;;;11.25;87.25;102645.06;5042317;28;20032;-83
2022/10/19 10:31:00;;;;;;;4.07;1.67;;;;;;;11.19;85.28;102629.84;5051442;28;20123;-83
2022/10/19 10:33:28;;;;;;;5.40;1.65;;;;;;;11.31;84.38;102639.53;5038352;28;20033;-84
2022/10/19 10:36:00;;;;;;;2.40;1.30;;;;;;;11.33;84.38;102642.88;5069943;28;20456;-84
2022/10/19 10:38:30;;;;;;;2.78;1.33;;;;;;;11.28;82.87;102624.94;5067462;28;20031;-83
2022/10/19 10:41:00;;;;;;;5.97;1.67;;;;;;;11.38;83.95;102620.06;5049681;28;20040;-84
2022/10/19 10:43:30;;;;;;;4.45;1.48;;;;;;;11.40;84.13;102613.03;5066962;28;20024;-84
2022/10/19 10:46:02;;;;;;;4.93;1.60;;;;;;;11.44;82.83;102619.72;5049265;28;20028;-85
2022/10/19 10:48:34;;;;;;;3.88;1.65;;;;;;;11.49;84.17;102628.09;5073127;28;20020;-85
2022/10/19 10:51:00;;;;;;;5.60;2.08;;;;;;;11.48;81.56;102616.03;5059502;28;20044;-85
2022/10/19 10:53:38;;;;;;;4.40;2.00;;;;;;;11.56;82.52;102621.63;5059499;28;20027;-84
2022/10/19 10:56:16;;;;;;;4.13;1.80;;;;;;;11.56;82.19;102619.03;5061531;28;20039;-85
2022/10/19 10:58:49;;;;;;;4.63;2.00;;;;;;;11.67;82.17;102616.66;5059028;28;20492;-83
2022/10/19 11:01:21;;;;;;;5.85;2.00;;;;;;;11.70;82.37;102606.09;5063077;28;20062;-85
2022/10/19 11:03:54;;;;;;;6.57;2.03;;;;;;;11.83;82.86;102605.41;5051150;28;20063;-84
2022/10/19 11:06:24;;;;;;;5.20;2.25;;;;;;;11.77;81.53;102600.53;5056651;28;20035;-84
2022/10/19 11:09:06;;;;;;;4.65;1.63;;;;;;;11.80;81.00;102589.94;5058277;28;20048;-85
2022/10/19 11:11:43;;;;;;;5.65;1.58;;;;;;;11.85;81.61;102573.19;5048705;28;20033;-85
2022/10/19 11:14:32;;;;;;;5.72;1.83;;;;;;;11.98;81.09;102583.69;5057159;28;20024;-84
2022/10/19 11:17:04;;;;;;;5.65;1.92;;;;;;;11.99;78.83;102574.97;5066902;28;20035;-84
2022/10/19 11:19:34;;;;;;;7.70;1.70;;;;;;;12.03;78.58;102579.03;5066381;28;20047;-85
2022/10/19 11:22:11;;;;;;;5.28;1.85;;;;;;;12.06;77.83;102571.06;5059118;28;20134;-85
2022/10/19 11:24:53;;;;;;;5.97;1.70;;;;;;;12.08;78.57;102570.97;5065877;28;20036;-85
2022/10/19 11:27:21;;;;;;;5.00;2.03;;;;;;;12.17;78.86;102584.28;5034134;28;20040;-85
2022/10/19 11:30:12;;;;;;;5.47;1.73;;;;;;;12.20;79.25;102563.25;5053657;28;20029;-85
2022/10/19 11:33:05;;;;;;;4.82;1.50;;;;;;;12.29;78.99;102571.47;5048614;28;20024;-85
2022/10/19 11:35:53;;;;;;;5.32;1.80;;;;;;;12.30;77.38;102562.72;5040362;28;20099;-84
2022/10/19 11:39:05;;;;;;;3.87;1.23;;;;;;;12.35;78.38;102550.25;5055480;28;20503;-85
2022/10/19 11:42:05;;;;;;;4.90;1.73;;;;;;;12.40;78.66;102554.25;4990827;28;20044;-85
2022/10/19 11:44:50;;;;;;;4.45;1.77;;;;;;;12.44;78.64;102555.75;5061213;28;20166;-85